Time,TemperatureF,DewpointF,PressureIn,WindDirection,WindDirectionDegrees,WindSpeedMPH,WindSpeedGustMPH,Humidity,HourlyPrecipIn,Conditions,Clouds,dailyrainin,SoftwareType,DateUTC
2013-01-14 00:02:00,15.0,-99.9,-100.00,North,-999,0.0,0.0,-999,-99.99,,,-99.99,,2013-01-14 08:02:00,
2013-01-14 00:12:00,15.0,-99.9,-100.00,North,-999,0.0,0.0,-999,-99.99,,,0.00,,2013-01-14 08:12:00,
2013-01-14 00:22:00,15.0,-99.9,-100.00,North,-999,0.0,0.0,-999,-99.99,,,0.00,,2013-01-14 08:22:00,
2013-01-14 00:33:00,16.0,-99.9,-100.00,North,-999,0.0,0.0,-999,-99.99,,,-99.99,,2013-01-14 08:33:00,
2013-01-14 00:43:00,17.0,-99.9,-100.00,North,-999,0.0,0.0,-999,-99.99,,,0.00,,2013-01-14 08:43:00,
2013-01-14 00:53:00,17.0,-99.9,-100.00,North,-999,0.0,0.0,-999,-99.99,,,0.00,,2013-01-14 08:53:00,
2013-01-14 01:03:00,17.0,-99.9,-100.00,North,-999,0.0,0.0,-999,-99.99,,,0.00,,2013-01-14 09:03:00,
2013-01-14 01:12:00,17.0,-99.9,-100.00,South,180,2.0,2.0,-999,-99.99,,,0.00,,2013-01-14 09:12:00,
2013-01-14 01:23:00,17.0,-99.9,-100.00,South,180,2.0,2.0,-999,-99.99,,,0.00,,2013-01-14 09:23:00,
2013-01-14 01:34:00,16.0,-99.9,-100.00,SW,225,3.0,3.0,-999,-99.99,,,0.00,,2013-01-14 09:34:00,
2013-01-14 01:43:00,16.0,-99.9,-100.00,South,180,2.0,2.0,-999,-99.99,,,0.00,,2013-01-14 09:43:00,
2013-01-14 01:53:00,16.0,-99.9,-100.00,South,180,2.0,2.0,-999,-99.99,,,0.00,,2013-01-14 09:53:00,
2013-01-14 02:03:00,16.0,-99.9,-100.00,South,180,1.0,1.0,-999,-99.99,,,0.00,,2013-01-14 10:03:00,
2013-01-14 02:12:00,16.0,-99.9,-100.00,South,180,1.0,1.0,-999,-99.99,,,0.00,,2013-01-14 10:12:00,
2013-01-14 02:23:00,16.0,-99.9,-100.00,South,180,1.0,1.0,-999,-99.99,,,0.00,,2013-01-14 10:23:00,
2013-01-14 02:33:00,16.0,-99.9,-100.00,North,-999,0.0,0.0,-999,-99.99,,,-99.99,,2013-01-14 10:33:00,
2013-01-14 02:43:00,17.0,-99.9,-100.00,North,-999,0.0,0.0,-999,-99.99,,,0.00,,2013-01-14 10:43:00,
2013-01-14 02:53:00,17.0,-99.9,-100.00,SW,225,2.0,2.0,-999,-99.99,,,0.00,,2013-01-14 10:53:00,
2013-01-14 03:02:00,17.0,-99.9,-100.00,SW,225,2.0,2.0,-999,-99.99,,,0.00,,2013-01-14 11:02:00,
2013-01-14 03:12:00,17.0,-99.9,-100.00,North,-999,0.0,0.0,-999,-99.99,,,0.00,,2013-01-14 11:12:00,
2013-01-14 03:23:00,17.0,-99.9,-100.00,North,-999,0.0,0.0,-999,-99.99,,,0.00,,2013-01-14 11:23:00,
2013-01-14 03:33:00,17.0,-99.9,-100.00,North,-999,0.0,0.0,-999,-99.99,,,-99.99,,2013-01-14 11:33:00,
2013-01-14 03:43:00,17.0,-99.9,-100.00,North,-999,0.0,0.0,-999,-99.99,,,0.00,,2013-01-14 11:43:00,
2013-01-14 03:53:00,17.0,-99.9,-100.00,SW,225,2.0,2.0,-999,-99.99,,,0.00,,2013-01-14 11:53:00,
2013-01-14 04:03:00,17.0,-99.9,-100.00,SW,225,2.0,2.0,-999,-99.99,,,0.00,,2013-01-14 12:03:00,
2013-01-14 04:12:00,18.0,-99.9,-100.00,South,180,2.0,2.0,-999,-99.99,,,0.00,,2013-01-14 12:12:00,
2013-01-14 04:23:00,18.0,-99.9,-100.00,South,180,2.0,2.0,-999,-99.99,,,0.00,,2013-01-14 12:23:00,
2013-01-14 04:33:00,18.0,-99.9,-100.00,North,-999,0.0,0.0,-999,-99.99,,,0.00,,2013-01-14 12:33:00,
2013-01-14 04:43:00,18.0,-99.9,-100.00,SW,225,1.0,1.0,-999,-99.99,,,0.00,,2013-01-14 12:43:00,
2013-01-14 04:53:00,18.0,-99.9,-100.00,SW,225,1.0,1.0,-999,-99.99,,,0.00,,2013-01-14 12:53:00,
2013-01-14 05:03:00,18.0,-99.9,-100.00,North,-999,0.0,0.0,-999,-99.99,,,0.00,,2013-01-14 13:03:00,
2013-01-14 05:13:00,18.0,-99.9,-100.00,SW,225,3.0,3.0,-999,-99.99,,,0.00,,2013-01-14 13:13:00,
2013-01-14 05:23:00,18.0,-99.9,-100.00,SW,225,3.0,3.0,-999,-99.99,,,0.00,,2013-01-14 13:23:00,
2013-01-14 05:34:00,19.0,-99.9,-100.00,SW,225,3.0,3.0,-999,-99.99,,,-99.99,,2013-01-14 13:34:00,
2013-01-14 05:43:00,19.0,-99.9,-100.00,SW,225,2.0,2.0,-999,-99.99,,,0.00,,2013-01-14 13:43:00,
2013-01-14 05:53:00,19.0,-99.9,-100.00,SW,225,2.0,2.0,-999,-99.99,,,0.00,,2013-01-14 13:53:00,
2013-01-14 06:03:00,19.0,-99.9,-100.00,SW,225,3.0,3.0,-999,-99.99,,,-99.99,,2013-01-14 14:03:00,
2013-01-14 06:13:00,20.0,-99.9,-100.00,SW,225,3.0,3.0,-999,-99.99,,,0.00,,2013-01-14 14:13:00,
2013-01-14 06:23:00,20.0,-99.9,-100.00,SW,225,3.0,3.0,-999,-99.99,,,0.00,,2013-01-14 14:23:00,
2013-01-14 06:33:00,21.0,-99.9,-100.00,SW,225,2.0,2.0,-999,-99.99,,,-99.99,,2013-01-14 14:33:00,
2013-01-14 06:43:00,22.0,-99.9,-100.00,South,180,2.0,2.0,-999,-99.99,,,0.00,,2013-01-14 14:43:00,
2013-01-14 06:53:00,22.0,-99.9,-100.00,South,180,2.0,2.0,-999,-99.99,,,0.00,,2013-01-14 14:53:00,
2013-01-14 07:04:00,21.0,-99.9,-100.00,SW,225,2.0,2.0,-999,-99.99,,,0.00,,2013-01-14 15:04:00,
2013-01-14 07:12:00,20.0,-99.9,-100.00,SW,225,3.0,3.0,-999,-99.99,,,0.00,,2013-01-14 15:12:00,
2013-01-14 07:24:00,20.0,-99.9,-100.00,SW,225,3.0,3.0,-999,-99.99,,,0.00,,2013-01-14 15:24:00,
2013-01-14 07:34:00,21.0,-99.9,-100.00,SW,225,1.0,1.0,-999,-99.99,,,0.00,,2013-01-14 15:34:00,
2013-01-14 07:43:00,25.0,-99.9,-100.00,North,0,3.0,3.0,-999,-99.99,,,0.00,,2013-01-14 15:43:00,
2013-01-14 07:54:00,25.0,-99.9,-100.00,North,0,3.0,3.0,-999,-99.99,,,0.00,,2013-01-14 15:54:00,
2013-01-14 08:03:00,27.0,-99.9,-100.00,NE,45,1.0,1.0,-999,-99.99,,,-99.99,,2013-01-14 16:03:00,
2013-01-14 08:13:00,28.0,-99.9,-100.00,North,0,2.0,2.0,-999,-99.99,,,0.00,,2013-01-14 16:13:00,
2013-01-14 08:23:00,28.0,-99.9,-100.00,North,0,2.0,2.0,-999,-99.99,,,0.00,,2013-01-14 16:23:00,
2013-01-14 08:33:00,28.0,-99.9,-100.00,NE,45,1.0,1.0,-999,-99.99,,,0.00,,2013-01-14 16:33:00,
2013-01-14 08:43:00,29.0,-99.9,-100.00,North,0,2.0,2.0,-999,-99.99,,,0.00,,2013-01-14 16:43:00,
2013-01-14 08:54:00,29.0,-99.9,-100.00,North,0,2.0,2.0,-999,-99.99,,,0.00,,2013-01-14 16:54:00,
2013-01-14 09:12:00,30.0,-99.9,-100.00,North,-999,0.0,0.0,-999,-99.99,,,0.00,,2013-01-14 17:12:00,
2013-01-14 09:23:00,30.0,-99.9,-100.00,North,-999,0.0,0.0,-999,-99.99,,,0.00,,2013-01-14 17:23:00,
2013-01-14 09:34:00,32.0,-99.9,-100.00,South,180,1.0,1.0,-999,-99.99,,,0.00,,2013-01-14 17:34:00,
2013-01-14 09:44:00,31.0,-99.9,-100.00,SW,225,4.0,4.0,-999,-99.99,,,0.00,,2013-01-14 17:44:00,
2013-01-14 09:54:00,31.0,-99.9,-100.00,SW,225,4.0,4.0,-999,-99.99,,,0.00,,2013-01-14 17:54:00,
2013-01-14 10:03:00,30.0,-99.9,-100.00,South,180,3.0,3.0,-999,-99.99,,,0.00,,2013-01-14 18:03:00,
2013-01-14 10:13:00,31.0,-99.9,-100.00,SW,225,5.0,5.0,-999,-99.99,,,0.00,,2013-01-14 18:13:00,
2013-01-14 10:23:00,31.0,-99.9,-100.00,SW,225,5.0,5.0,-999,-99.99,,,0.00,,2013-01-14 18:23:00,
2013-01-14 10:33:00,32.0,-99.9,-100.00,SE,135,3.0,3.0,-999,-99.99,,,0.00,,2013-01-14 18:33:00,
2013-01-14 10:43:00,32.0,-99.9,-100.00,SW,225,6.0,6.0,-999,-99.99,,,0.00,,2013-01-14 18:43:00,
2013-01-14 10:53:00,32.0,-99.9,-100.00,SW,225,6.0,6.0,-999,-99.99,,,0.00,,2013-01-14 18:53:00,
2013-01-14 11:03:00,33.0,-99.9,-100.00,South,180,2.0,2.0,-999,-99.99,,,0.00,,2013-01-14 19:03:00,
2013-01-14 11:13:00,36.0,-99.9,-100.00,SE,135,1.0,1.0,-999,-99.99,,,0.00,,2013-01-14 19:13:00,
2013-01-14 11:22:00,36.0,-99.9,-100.00,SE,135,1.0,1.0,-999,-99.99,,,0.00,,2013-01-14 19:22:00,
2013-01-14 11:33:00,36.0,-99.9,-100.00,East,90,3.0,3.0,-999,-99.99,,,-99.99,,2013-01-14 19:33:00,
2013-01-14 11:43:00,36.0,-99.9,-100.00,SE,135,1.0,1.0,-999,-99.99,,,0.00,,2013-01-14 19:43:00,
2013-01-14 11:53:00,36.0,-99.9,-100.00,SE,135,1.0,1.0,-999,-99.99,,,0.00,,2013-01-14 19:53:00,
2013-01-14 12:04:00,36.0,-99.9,-100.00,NE,45,3.0,3.0,-999,-99.99,,,0.00,,2013-01-14 20:04:00,
2013-01-14 12:13:00,40.0,-99.9,-100.00,North,-999,0.0,0.0,-999,-99.99,,,0.00,,2013-01-14 20:13:00,
2013-01-14 12:23:00,40.0,-99.9,-100.00,North,-999,0.0,0.0,-999,-99.99,,,0.00,,2013-01-14 20:23:00,
2013-01-14 12:34:00,43.0,-99.9,-100.00,SW,225,2.0,2.0,-999,-99.99,,,0.00,,2013-01-14 20:34:00,
2013-01-14 12:43:00,41.0,-99.9,-100.00,SW,225,3.0,3.0,-999,-99.99,,,0.00,,2013-01-14 20:43:00,
2013-01-14 12:53:00,43.0,-99.9,-100.00,SW,225,1.0,1.0,-999,-99.99,,,0.00,,2013-01-14 20:53:00,
2013-01-14 13:03:00,43.0,-99.9,-100.00,SW,225,1.0,1.0,-999,-99.99,,,0.00,,2013-01-14 21:03:00,
2013-01-14 13:13:00,45.0,-99.9,-100.00,SW,225,1.0,1.0,-999,-99.99,,,0.00,,2013-01-14 21:13:00,
2013-01-14 13:23:00,45.0,-99.9,-100.00,SW,225,1.0,1.0,-999,-99.99,,,0.00,,2013-01-14 21:23:00,
2013-01-14 13:33:00,42.0,-99.9,-100.00,East,90,3.0,3.0,-999,-99.99,,,0.00,,2013-01-14 21:33:00,
2013-01-14 13:43:00,45.0,-99.9,-100.00,SW,225,3.0,3.0,-999,-99.99,,,0.00,,2013-01-14 21:43:00,
2013-01-14 13:54:00,45.0,-99.9,-100.00,SW,225,3.0,3.0,-999,-99.99,,,0.00,,2013-01-14 21:54:00,
2013-01-14 14:03:00,44.0,-99.9,-100.00,SW,225,5.0,5.0,-999,-99.99,,,0.00,,2013-01-14 22:03:00,
2013-01-14 14:13:00,44.0,-99.9,-100.00,SW,225,3.0,3.0,-999,-99.99,,,0.00,,2013-01-14 22:13:00,
2013-01-14 14:23:00,44.0,-99.9,-100.00,SW,225,3.0,3.0,-999,-99.99,,,0.00,,2013-01-14 22:23:00,
2013-01-14 14:33:00,45.0,-99.9,-100.00,NE,45,2.0,2.0,-999,-99.99,,,0.00,,2013-01-14 22:33:00,
2013-01-14 14:43:00,44.0,-99.9,-100.00,SE,135,3.0,3.0,-999,-99.99,,,0.00,,2013-01-14 22:43:00,
2013-01-14 14:53:00,44.0,-99.9,-100.00,SE,135,3.0,3.0,-999,-99.99,,,0.00,,2013-01-14 22:53:00,
2013-01-14 15:12:00,43.0,-99.9,-100.00,SW,225,5.0,5.0,-999,-99.99,,,0.00,,2013-01-14 23:12:00,
2013-01-14 15:23:00,43.0,-99.9,-100.00,SW,225,5.0,5.0,-999,-99.99,,,0.00,,2013-01-14 23:23:00,
2013-01-14 15:33:00,42.0,-99.9,-100.00,NE,45,3.0,3.0,-999,-99.99,,,0.00,,2013-01-14 23:33:00,
2013-01-14 15:43:00,41.0,-99.9,-100.00,North,-999,0.0,0.0,-999,-99.99,,,0.00,,2013-01-14 23:43:00,
2013-01-14 15:53:00,41.0,-99.9,-100.00,North,-999,0.0,0.0,-999,-99.99,,,0.00,,2013-01-14 23:53:00,
2013-01-14 16:03:00,40.0,-99.9,-100.00,East,90,2.0,2.0,-999,-99.99,,,0.00,,2013-01-15 00:03:00,
2013-01-14 16:12:00,37.0,-99.9,-100.00,NE,45,3.0,3.0,-999,-99.99,,,0.00,,2013-01-15 00:12:00,
2013-01-14 16:23:00,37.0,-99.9,-100.00,NE,45,3.0,3.0,-999,-99.99,,,0.00,,2013-01-15 00:23:00,
2013-01-14 16:33:00,36.0,-99.9,-100.00,NE,45,3.0,3.0,-999,-99.99,,,0.00,,2013-01-15 00:33:00,
2013-01-14 16:43:00,34.0,-99.9,-100.00,NE,45,3.0,3.0,-999,-99.99,,,0.00,,2013-01-15 00:43:00,
2013-01-14 16:53:00,34.0,-99.9,-100.00,NE,45,3.0,3.0,-999,-99.99,,,0.00,,2013-01-15 00:53:00,
2013-01-14 17:02:00,34.0,-99.9,-100.00,SE,135,1.0,1.0,-999,-99.99,,,0.00,,2013-01-15 01:02:00,
2013-01-14 17:12:00,33.0,-99.9,-100.00,North,-999,0.0,0.0,-999,-99.99,,,0.00,,2013-01-15 01:12:00,
2013-01-14 17:23:00,33.0,-99.9,-100.00,North,-999,0.0,0.0,-999,-99.99,,,0.00,,2013-01-15 01:23:00,
2013-01-14 17:33:00,32.0,-99.9,-100.00,NE,45,3.0,3.0,-999,-99.99,,,0.00,,2013-01-15 01:33:00,
2013-01-14 17:43:00,31.0,-99.9,-100.00,North,-999,0.0,0.0,-999,-99.99,,,0.00,,2013-01-15 01:43:00,
2013-01-14 17:53:00,31.0,-99.9,-100.00,North,-999,0.0,0.0,-999,-99.99,,,0.00,,2013-01-15 01:53:00,
2013-01-14 18:03:00,30.0,-99.9,-100.00,North,-999,0.0,0.0,-999,-99.99,,,0.00,,2013-01-15 02:03:00,
2013-01-14 18:12:00,30.0,-99.9,-100.00,South,180,3.0,3.0,-999,-99.99,,,0.00,,2013-01-15 02:12:00,
2013-01-14 18:23:00,30.0,-99.9,-100.00,South,180,3.0,3.0,-999,-99.99,,,0.00,,2013-01-15 02:23:00,
2013-01-14 18:33:00,30.0,-99.9,-100.00,North,-999,0.0,0.0,-999,-99.99,,,0.00,,2013-01-15 02:33:00,
2013-01-14 18:43:00,29.0,-99.9,-100.00,North,-999,0.0,0.0,-999,-99.99,,,0.00,,2013-01-15 02:43:00,
2013-01-14 18:53:00,29.0,-99.9,-100.00,North,-999,0.0,0.0,-999,-99.99,,,0.00,,2013-01-15 02:53:00,
2013-01-14 19:03:00,29.0,-99.9,-100.00,North,-999,0.0,0.0,-999,-99.99,,,0.00,,2013-01-15 03:03:00,
2013-01-14 19:12:00,29.0,-99.9,-100.00,SW,225,1.0,1.0,-999,-99.99,,,0.00,,2013-01-15 03:12:00,
2013-01-14 19:22:00,29.0,-99.9,-100.00,SW,225,1.0,1.0,-999,-99.99,,,0.00,,2013-01-15 03:22:00,
2013-01-14 19:33:00,29.0,-99.9,-100.00,South,180,4.0,4.0,-999,-99.99,,,0.00,,2013-01-15 03:33:00,
2013-01-14 19:43:00,29.0,-99.9,-100.00,South,180,4.0,4.0,-999,-99.99,,,0.00,,2013-01-15 03:43:00,
2013-01-14 19:53:00,29.0,-99.9,-100.00,South,180,4.0,4.0,-999,-99.99,,,0.00,,2013-01-15 03:53:00,
2013-01-14 20:12:00,30.0,-99.9,-100.00,SW,225,3.0,3.0,-999,-99.99,,,0.00,,2013-01-15 04:12:00,
2013-01-14 20:33:00,31.0,-99.9,-100.00,SW,225,3.0,3.0,-999,-99.99,,,0.00,,2013-01-15 04:33:00,
2013-01-14 20:43:00,31.0,-99.9,-100.00,SW,225,2.0,2.0,-999,-99.99,,,0.00,,2013-01-15 04:43:00,
2013-01-14 20:53:00,31.0,-99.9,-100.00,SW,225,2.0,2.0,-999,-99.99,,,0.00,,2013-01-15 04:53:00,
2013-01-14 21:04:00,31.0,-99.9,-100.00,North,-999,0.0,0.0,-999,-99.99,,,0.00,,2013-01-15 05:04:00,
2013-01-14 21:12:00,30.0,-99.9,-100.00,North,-999,0.0,0.0,-999,-99.99,,,0.00,,2013-01-15 05:12:00,
2013-01-14 21:23:00,30.0,-99.9,-100.00,North,-999,0.0,0.0,-999,-99.99,,,0.00,,2013-01-15 05:23:00,
2013-01-14 21:33:00,30.0,-99.9,-100.00,South,180,1.0,1.0,-999,-99.99,,,0.00,,2013-01-15 05:33:00,
2013-01-14 21:43:00,31.0,-99.9,-100.00,North,-999,0.0,0.0,-999,-99.99,,,0.00,,2013-01-15 05:43:00,
2013-01-14 21:53:00,31.0,-99.9,-100.00,North,-999,0.0,0.0,-999,-99.99,,,0.00,,2013-01-15 05:53:00,
2013-01-14 22:03:00,30.0,-99.9,-100.00,SW,225,3.0,3.0,-999,-99.99,,,0.00,,2013-01-15 06:03:00,
2013-01-14 22:12:00,33.0,-99.9,-100.00,South,180,2.0,2.0,-999,-99.99,,,0.00,,2013-01-15 06:12:00,
2013-01-14 22:22:00,33.0,-99.9,-100.00,South,180,2.0,2.0,-999,-99.99,,,0.00,,2013-01-15 06:22:00,
2013-01-14 22:33:00,33.0,-99.9,-100.00,SW,225,1.0,1.0,-999,-99.99,,,0.00,,2013-01-15 06:33:00,
2013-01-14 22:43:00,37.0,-99.9,-100.00,NE,45,2.0,2.0,-999,-99.99,,,0.00,,2013-01-15 06:43:00,
2013-01-14 22:53:00,37.0,-99.9,-100.00,NE,45,2.0,2.0,-999,-99.99,,,0.00,,2013-01-15 06:53:00,
2013-01-14 23:02:00,37.0,-99.9,-100.00,NE,45,2.0,2.0,-999,-99.99,,,0.00,,2013-01-15 07:02:00,
2013-01-14 23:12:00,35.0,-99.9,-100.00,SW,225,1.0,1.0,-999,-99.99,,,0.00,,2013-01-15 07:12:00,
2013-01-14 23:22:00,35.0,-99.9,-100.00,SW,225,1.0,1.0,-999,-99.99,,,0.00,,2013-01-15 07:22:00,
2013-01-14 23:33:00,37.0,-99.9,-100.00,SW,225,1.0,1.0,-999,-99.99,,,-99.99,,2013-01-15 07:33:00,
2013-01-14 23:43:00,43.0,-99.9,-100.00,North,0,5.0,5.0,-999,-99.99,,,0.00,,2013-01-15 07:43:00,
2013-01-14 23:53:00,43.0,-99.9,-100.00,North,0,5.0,5.0,-999,-99.99,,,0.00,,2013-01-15 07:53:00,